Terminal Aerodrome Forecast
Issued by NWS

Home | Current Version | Previous Version | Text Only | Print | Product List | Glossary On
Versions: 1 2 3 4 5 6 7 8 9 10 11 12
000
FTUS45 KABQ 010530
TAFLVS
TAF
KLVS 010530Z 0106/0206 20008KT P6SM FEW080
     FM011600 07011KT P6SM FEW070
     FM012000 09010KT P6SM VCTS SCT070CB BKN120
     FM012300 11010KT P6SM VCSH SCT070 BKN120
     FM020300 12008KT P6SM SCT070 BKN120=

USA.gov is the U.S. government's official web portal to all federal, state and local government web resources and services.